createdAt,value
2023-03-11T00:00:50.421Z,3.90
2023-03-11T00:03:23.143Z,3.90
2023-03-11T00:05:52.800Z,3.90
2023-03-11T00:08:24.881Z,3.90
2023-03-11T00:10:56.141Z,3.90
2023-03-11T00:13:24.457Z,3.90
2023-03-11T00:15:56.222Z,3.90
2023-03-11T00:18:31.148Z,3.90
2023-03-11T00:21:01.272Z,3.90
2023-03-11T00:23:30.482Z,3.80
2023-03-11T00:25:59.768Z,3.80
2023-03-11T00:28:28.007Z,3.80
2023-03-11T00:30:56.294Z,3.80
2023-03-11T00:33:26.312Z,3.80
2023-03-11T00:35:54.548Z,3.70
2023-03-11T00:38:23.223Z,3.70
2023-03-11T00:40:51.876Z,3.70
2023-03-11T00:43:20.334Z,3.70
2023-03-11T00:45:48.696Z,3.60
2023-03-11T00:48:16.993Z,3.50
2023-03-11T00:50:47.686Z,3.60
2023-03-11T00:53:15.804Z,3.50
2023-03-11T00:55:44.100Z,3.40
2023-03-11T00:58:14.277Z,3.40
2023-03-11T01:00:49.594Z,3.40
2023-03-11T01:03:17.742Z,3.30
2023-03-11T01:05:48.613Z,3.30
2023-03-11T01:08:16.741Z,3.20
2023-03-11T01:10:44.925Z,3.20
2023-03-11T01:13:13.980Z,3.10
2023-03-11T01:15:42.370Z,3.10
2023-03-11T01:18:10.552Z,3.10
2023-03-11T01:20:39.957Z,3.00
2023-03-11T01:23:10.769Z,3.00
2023-03-11T01:25:39.127Z,3.00
2023-03-11T01:28:08.586Z,3.00
2023-03-11T01:30:39.656Z,3.00
2023-03-11T01:33:13.417Z,3.00
2023-03-11T01:35:42.274Z,3.00
2023-03-11T01:38:13.049Z,3.00
2023-03-11T01:40:45.028Z,3.00
2023-03-11T01:43:50.467Z,3.10
2023-03-11T01:46:26.778Z,3.00
2023-03-11T01:48:58.465Z,3.00
2023-03-11T01:51:34.412Z,3.00
2023-03-11T01:54:10.518Z,3.00
2023-03-11T01:56:40.685Z,3.00
2023-03-11T01:59:12.363Z,3.00
2023-03-11T02:01:53.697Z,3.00
2023-03-11T02:04:22.757Z,3.10
2023-03-11T02:06:53.719Z,3.10
2023-03-11T02:09:26.923Z,3.00
2023-03-11T02:11:56.098Z,3.00
2023-03-11T02:14:26.381Z,3.00
2023-03-11T02:16:56.154Z,3.00
2023-03-11T02:19:39.772Z,3.00
2023-03-11T02:22:09.856Z,3.00
2023-03-11T02:24:50.202Z,3.00
2023-03-11T02:27:23.132Z,3.00
2023-03-11T02:29:54.118Z,3.00
2023-03-11T02:32:23.877Z,3.00
2023-03-11T02:34:52.057Z,3.00
2023-03-11T02:37:20.773Z,2.90
2023-03-11T02:40:17.033Z,2.90
2023-03-11T02:42:46.895Z,2.90
2023-03-11T02:45:19.208Z,2.80
2023-03-11T02:47:47.746Z,2.80
2023-03-11T02:50:19.337Z,2.90
2023-03-11T02:52:50.878Z,2.80
2023-03-11T02:55:20.296Z,2.90
2023-03-11T02:57:50.404Z,2.80
2023-03-11T03:00:19.623Z,2.80
2023-03-11T03:02:55.003Z,2.80
2023-03-11T03:05:23.883Z,2.90
2023-03-11T03:07:53.290Z,2.90
2023-03-11T03:10:23.349Z,2.90
2023-03-11T03:12:52.950Z,2.90
2023-03-11T03:15:21.517Z,2.90
2023-03-11T03:17:51.487Z,2.90
2023-03-11T03:20:22.637Z,2.80
2023-03-11T03:22:54.264Z,2.80
2023-03-11T03:25:27.010Z,2.80
2023-03-11T03:27:58.186Z,2.80
2023-03-11T03:30:28.397Z,2.70
2023-03-11T03:32:57.565Z,2.70
2023-03-11T03:35:25.767Z,2.70
2023-03-11T03:38:04.767Z,2.60
2023-03-11T03:40:33.815Z,2.60
2023-03-11T03:43:07.178Z,2.60
2023-03-11T03:45:37.278Z,2.50
2023-03-11T03:48:06.143Z,2.60
2023-03-11T03:50:37.896Z,2.60
2023-03-11T03:53:06.312Z,2.60
2023-03-11T03:55:34.522Z,2.60
2023-03-11T03:58:02.845Z,2.50
2023-03-11T04:00:37.194Z,2.60
2023-03-11T04:03:05.601Z,2.50
2023-03-11T04:05:55.214Z,2.50
2023-03-11T04:08:23.437Z,2.50
2023-03-11T04:10:58.528Z,2.50
2023-03-11T04:13:28.137Z,2.50
2023-03-11T04:15:57.856Z,2.50
2023-03-11T04:18:26.212Z,2.50
2023-03-11T04:20:55.155Z,2.50
2023-03-11T04:23:23.448Z,2.40
2023-03-11T04:25:51.823Z,2.40
2023-03-11T04:28:20.695Z,2.50
2023-03-11T04:30:49.027Z,2.50
2023-03-11T04:33:18.700Z,2.40
2023-03-11T04:35:46.898Z,2.40
2023-03-11T04:38:15.753Z,2.40
2023-03-11T04:40:43.924Z,2.40
2023-03-11T04:43:12.654Z,2.40
2023-03-11T04:45:41.407Z,2.40
2023-03-11T04:48:10.537Z,2.40
2023-03-11T04:50:41.776Z,2.40
2023-03-11T04:53:10.110Z,2.40
2023-03-11T04:55:40.055Z,2.30
2023-03-11T04:58:08.599Z,2.30
2023-03-11T05:00:39.532Z,2.30
2023-03-11T05:03:11.133Z,2.30
2023-03-11T05:05:41.672Z,2.20
2023-03-11T05:08:10.403Z,2.30
2023-03-11T05:10:40.407Z,2.20
2023-03-11T05:13:08.875Z,2.30
2023-03-11T05:15:39.432Z,2.30
2023-03-11T05:18:09.037Z,2.30
2023-03-11T05:20:39.372Z,2.30
2023-03-11T05:23:10.290Z,2.30
2023-03-11T05:25:39.225Z,2.30
2023-03-11T05:28:07.624Z,2.30
2023-03-11T05:30:40.664Z,2.30
2023-03-11T05:33:09.580Z,2.30
2023-03-11T05:35:38.153Z,2.30
2023-03-11T05:38:06.364Z,2.30
2023-03-11T05:40:36.294Z,2.30
2023-03-11T05:43:04.953Z,2.30
2023-03-11T05:45:37.082Z,2.20
2023-03-11T05:48:05.607Z,2.20
2023-03-11T05:50:34.885Z,2.20
2023-03-11T05:53:04.316Z,2.20
2023-03-11T05:55:33.339Z,2.20
2023-03-11T05:58:03.614Z,2.20
2023-03-11T06:00:32.700Z,2.20
2023-03-11T06:03:03.934Z,2.30
2023-03-11T06:05:32.282Z,2.30
2023-03-11T06:08:01.330Z,2.30
2023-03-11T06:10:30.018Z,2.40
2023-03-11T06:12:58.418Z,2.40
2023-03-11T06:15:45.863Z,2.40
2023-03-11T06:18:14.364Z,2.40
2023-03-11T06:20:43.317Z,2.40
2023-03-11T06:23:12.382Z,2.50
2023-03-11T06:25:40.809Z,2.50
2023-03-11T06:28:09.322Z,2.40
2023-03-11T06:30:38.231Z,2.50
2023-03-11T06:33:14.475Z,2.50
2023-03-11T06:35:43.189Z,2.50
2023-03-11T06:38:11.584Z,2.50
2023-03-11T06:40:40.206Z,2.60
2023-03-11T06:43:08.604Z,2.60
2023-03-11T06:45:40.471Z,2.60
2023-03-11T06:48:11.157Z,2.70
2023-03-11T06:50:42.675Z,2.70
2023-03-11T06:53:11.566Z,2.70
2023-03-11T06:55:40.138Z,2.70
2023-03-11T06:58:08.701Z,2.70
2023-03-11T07:00:37.879Z,2.70
2023-03-11T07:03:06.096Z,2.70
2023-03-11T07:05:35.684Z,2.70
2023-03-11T07:08:09.837Z,2.70
2023-03-11T07:10:38.771Z,2.70
2023-03-11T07:13:07.806Z,2.70
2023-03-11T07:15:36.222Z,2.80
2023-03-11T07:18:04.670Z,2.80
2023-03-11T07:20:32.881Z,2.90
2023-03-11T07:23:02.454Z,2.90
2023-03-11T07:25:30.646Z,2.90
2023-03-11T07:27:58.871Z,3.00
2023-03-11T07:30:27.068Z,3.00
2023-03-11T07:32:55.356Z,3.00
2023-03-11T07:35:23.557Z,3.10
2023-03-11T07:37:51.722Z,3.20
2023-03-11T07:40:21.400Z,3.30
2023-03-11T07:42:50.022Z,3.40
2023-03-11T07:45:20.234Z,3.40
2023-03-11T07:47:48.481Z,3.50
2023-03-11T07:50:17.358Z,3.50
2023-03-11T07:52:46.611Z,3.60
2023-03-11T07:55:14.954Z,3.70
2023-03-11T07:57:44.620Z,3.80
2023-03-11T08:00:14.924Z,3.90
2023-03-11T08:02:43.369Z,4.10
2023-03-11T08:05:12.808Z,4.10
2023-03-11T08:07:41.239Z,4.10
2023-03-11T08:10:11.208Z,4.10
2023-03-11T08:12:39.512Z,4.10
2023-03-11T08:15:12.028Z,4.10
2023-03-11T08:17:40.524Z,4.10
2023-03-11T08:20:11.440Z,4.10
2023-03-11T08:22:55.634Z,4.10
2023-03-11T08:25:26.160Z,4.20
2023-03-11T08:27:54.509Z,4.40
2023-03-11T08:30:25.328Z,4.50
2023-03-11T08:32:53.648Z,4.60
2023-03-11T08:35:22.190Z,4.50
2023-03-11T08:37:50.554Z,4.60
2023-03-11T08:40:22.177Z,4.70
2023-03-11T08:42:50.701Z,4.60
2023-03-11T08:45:19.225Z,4.70
2023-03-11T08:47:49.070Z,4.80
2023-03-11T08:50:21.254Z,4.90
2023-03-11T08:52:49.466Z,5.10
2023-03-11T08:55:24.994Z,5.20
2023-03-11T08:57:53.209Z,5.10
2023-03-11T09:00:23.038Z,5.10
2023-03-11T09:02:52.648Z,5.00
2023-03-11T09:05:20.965Z,5.00
2023-03-11T09:07:49.155Z,5.00
2023-03-11T09:10:18.534Z,5.00
2023-03-11T09:12:46.763Z,5.10
2023-03-11T09:15:14.954Z,5.20
2023-03-11T09:17:43.156Z,5.40
2023-03-11T09:20:15.621Z,5.60
2023-03-11T09:22:43.930Z,5.80
2023-03-11T09:25:14.444Z,6.00
2023-03-11T09:27:42.721Z,6.30
2023-03-11T09:30:12.927Z,6.40
2023-03-11T09:32:41.180Z,6.50
2023-03-11T09:35:10.802Z,6.40
2023-03-11T09:37:40.419Z,6.40
2023-03-11T09:40:12.280Z,6.60
2023-03-11T09:42:50.964Z,6.70
2023-03-11T09:45:25.219Z,6.70
2023-03-11T09:48:16.814Z,6.80
2023-03-11T09:50:52.890Z,6.80
2023-03-11T09:53:37.665Z,6.80
2023-03-11T09:56:11.760Z,6.80
2023-03-11T09:58:45.380Z,6.90
2023-03-11T10:01:22.696Z,7.10
2023-03-11T10:03:54.484Z,7.30
2023-03-11T10:06:25.756Z,7.20
2023-03-11T10:09:04.089Z,7.30
2023-03-11T10:12:04.835Z,7.50
2023-03-11T10:15:14.954Z,7.70
2023-03-11T10:18:04.631Z,7.90
2023-03-11T10:20:43.681Z,8.00
2023-03-11T10:23:25.553Z,8.00
2023-03-11T10:26:06.061Z,7.90
2023-03-11T10:28:40.617Z,7.70
2023-03-11T10:31:23.238Z,7.40
2023-03-11T10:33:57.708Z,7.30
2023-03-11T10:36:36.088Z,7.30
2023-03-11T10:39:07.568Z,7.40
2023-03-11T10:41:45.868Z,7.50
2023-03-11T10:44:20.157Z,7.60
2023-03-11T10:46:48.774Z,7.60
2023-03-11T10:49:18.855Z,7.60
2023-03-11T10:51:49.441Z,7.60
2023-03-11T10:54:29.734Z,7.80
2023-03-11T10:57:01.725Z,8.10
2023-03-11T10:59:33.698Z,8.40
2023-03-11T11:02:05.124Z,8.40
2023-03-11T11:04:40.382Z,8.10
2023-03-11T11:07:31.953Z,7.80
2023-03-11T11:10:20.144Z,7.50
2023-03-11T11:12:59.074Z,7.30
2023-03-11T11:15:30.492Z,7.10
2023-03-11T11:18:02.646Z,6.90
2023-03-11T11:20:33.080Z,6.80
2023-03-11T11:23:05.000Z,6.60
2023-03-11T11:25:36.816Z,6.60
2023-03-11T11:28:18.986Z,6.70
2023-03-11T11:30:57.206Z,6.80
2023-03-11T11:33:29.572Z,6.80
2023-03-11T11:36:02.460Z,6.90
2023-03-11T11:38:33.024Z,7.00
2023-03-11T11:41:05.494Z,7.10
2023-03-11T11:43:49.624Z,7.40
2023-03-11T11:46:26.919Z,7.90
2023-03-11T11:49:18.514Z,8.10
2023-03-11T11:51:57.197Z,8.00
2023-03-11T11:54:34.401Z,7.80
2023-03-11T11:57:12.200Z,7.60
2023-03-11T11:59:42.694Z,7.50
2023-03-11T12:02:38.377Z,7.40
2023-03-11T12:05:12.195Z,7.30
2023-03-11T12:08:00.103Z,7.10
2023-03-11T12:10:34.832Z,7.00
2023-03-11T12:13:41.437Z,6.90
2023-03-11T12:16:30.244Z,6.80
2023-03-11T12:19:05.344Z,6.80
2023-03-11T12:21:58.938Z,6.80
2023-03-11T12:24:55.763Z,6.90
2023-03-11T12:27:30.271Z,7.10
2023-03-11T12:30:05.247Z,7.30
2023-03-11T12:32:39.943Z,7.40
2023-03-11T12:35:22.038Z,7.50
2023-03-11T12:38:00.342Z,7.50
2023-03-11T12:41:00.097Z,7.40
2023-03-11T12:44:09.125Z,7.40
2023-03-11T12:47:04.295Z,7.50
2023-03-11T12:49:36.026Z,7.50
2023-03-11T12:52:28.911Z,7.40
2023-03-11T12:55:32.737Z,7.20
2023-03-11T12:58:41.472Z,7.30
2023-03-11T13:01:38.717Z,7.30
2023-03-11T13:04:48.074Z,7.50
2023-03-11T13:07:43.334Z,7.70
2023-03-11T13:10:20.241Z,7.70
2023-03-11T13:12:50.956Z,7.80
2023-03-11T13:15:36.605Z,7.80
2023-03-11T13:18:18.483Z,7.70
2023-03-11T13:20:56.089Z,7.70
2023-03-11T13:23:37.686Z,7.80
2023-03-11T13:26:33.088Z,7.70
2023-03-11T13:29:46.151Z,7.70
2023-03-11T13:32:43.391Z,7.70
2023-03-11T13:35:29.738Z,7.70
2023-03-11T13:38:33.182Z,7.70
2023-03-11T13:41:03.916Z,7.70
2023-03-11T13:43:45.858Z,7.70
2023-03-11T13:46:27.112Z,7.70
2023-03-11T13:49:04.821Z,7.70
2023-03-11T13:51:40.644Z,7.50
2023-03-11T13:54:32.529Z,7.30
2023-03-11T13:57:03.761Z,7.20
2023-03-11T13:59:35.857Z,7.00
2023-03-11T14:02:19.402Z,6.90
2023-03-11T14:04:52.388Z,6.80
2023-03-11T14:07:30.148Z,6.70
2023-03-11T14:10:27.467Z,6.60
2023-03-11T14:13:16.361Z,6.50
2023-03-11T14:15:52.979Z,6.50
2023-03-11T14:18:36.960Z,6.40
2023-03-11T14:21:08.501Z,6.30
2023-03-11T14:23:43.150Z,6.20
2023-03-11T14:26:17.770Z,6.10
2023-03-11T14:28:50.763Z,6.10
2023-03-11T14:31:31.970Z,6.10
2023-03-11T14:34:06.626Z,6.20
2023-03-11T14:36:44.120Z,6.20
2023-03-11T14:39:28.373Z,6.20
2023-03-11T14:42:06.642Z,6.30
2023-03-11T14:44:41.036Z,6.50
2023-03-11T14:47:17.531Z,6.70
2023-03-11T14:49:48.932Z,6.70
2023-03-11T14:52:23.582Z,6.80
2023-03-11T14:54:55.162Z,6.80
2023-03-11T14:57:37.858Z,6.80
2023-03-11T15:00:15.913Z,6.70
2023-03-11T15:03:03.052Z,6.60
2023-03-11T15:05:42.745Z,6.50
2023-03-11T15:08:11.487Z,6.50
2023-03-11T15:10:39.700Z,6.60
2023-03-11T15:13:16.385Z,6.60
2023-03-11T15:15:45.994Z,6.50
2023-03-11T15:18:25.224Z,6.40
2023-03-11T15:21:15.975Z,6.30
2023-03-11T15:23:49.874Z,6.20
2023-03-11T15:26:24.182Z,6.20
2023-03-11T15:28:59.769Z,6.20
2023-03-11T15:31:37.949Z,6.10
2023-03-11T15:34:20.547Z,6.00
2023-03-11T15:37:01.532Z,6.00
2023-03-11T15:39:45.124Z,5.90
2023-03-11T15:42:25.710Z,5.90
2023-03-11T15:45:17.928Z,5.80
2023-03-11T15:47:48.647Z,5.70
2023-03-11T15:50:27.296Z,5.60
2023-03-11T15:52:59.914Z,5.60
2023-03-11T15:55:29.145Z,5.50
2023-03-11T15:58:04.673Z,5.50
2023-03-11T16:00:35.898Z,5.40
2023-03-11T16:03:05.168Z,5.40
2023-03-11T16:05:33.509Z,5.40
2023-03-11T16:08:01.769Z,5.40
2023-03-11T16:10:30.176Z,5.30
2023-03-11T16:12:58.376Z,5.30
2023-03-11T16:15:29.686Z,5.30
2023-03-11T16:18:01.280Z,5.30
2023-03-11T16:20:34.282Z,5.30
2023-03-11T16:23:03.145Z,5.30
2023-03-11T16:25:35.685Z,5.30
2023-03-11T16:28:05.512Z,5.20
2023-03-11T16:30:36.109Z,5.20
2023-03-11T16:33:05.855Z,5.20
2023-03-11T16:35:34.307Z,5.20
2023-03-11T16:38:02.878Z,5.20
2023-03-11T16:40:32.698Z,5.10
2023-03-11T16:43:04.668Z,5.10
2023-03-11T16:45:33.382Z,5.10
2023-03-11T16:48:01.681Z,5.00
2023-03-11T16:50:31.586Z,5.00
2023-03-11T16:53:00.618Z,5.00
2023-03-11T16:55:29.804Z,4.90
2023-03-11T16:57:58.691Z,4.90
2023-03-11T17:00:27.096Z,4.90
2023-03-11T17:02:55.505Z,4.90
2023-03-11T17:05:23.803Z,4.80
2023-03-11T17:08:00.582Z,4.80
2023-03-11T17:10:29.980Z,4.70
2023-03-11T17:12:58.370Z,4.70
2023-03-11T17:15:26.689Z,4.60
2023-03-11T17:17:54.918Z,4.60
2023-03-11T17:20:23.071Z,4.50
2023-03-11T17:22:51.442Z,4.50
2023-03-11T17:25:21.180Z,4.50
2023-03-11T17:27:50.022Z,4.40
2023-03-11T17:30:35.636Z,4.40
2023-03-11T17:33:05.300Z,4.30
2023-03-11T17:35:33.705Z,4.30
2023-03-11T17:38:02.154Z,4.30
2023-03-11T17:40:32.631Z,4.30
2023-03-11T17:43:00.824Z,4.30
2023-03-11T17:45:29.299Z,4.30
2023-03-11T17:47:57.535Z,4.20
2023-03-11T17:50:26.326Z,4.20
2023-03-11T17:52:56.387Z,4.20
2023-03-11T17:55:24.639Z,4.20
2023-03-11T17:57:56.271Z,4.20
2023-03-11T18:00:24.778Z,4.20
2023-03-11T18:02:52.998Z,4.10
2023-03-11T18:05:22.293Z,4.10
2023-03-11T18:07:50.509Z,4.10
2023-03-11T18:10:19.418Z,4.10
2023-03-11T18:12:48.619Z,4.10
2023-03-11T18:15:19.857Z,4.00
2023-03-11T18:17:49.424Z,4.00
2023-03-11T18:20:18.195Z,3.90
2023-03-11T18:22:47.289Z,3.80
2023-03-11T18:25:15.828Z,3.80
2023-03-11T18:27:44.583Z,3.70
2023-03-11T18:30:14.460Z,3.60
2023-03-11T18:32:44.730Z,3.60
2023-03-11T18:35:14.046Z,3.50
2023-03-11T18:37:42.411Z,3.40
2023-03-11T18:40:12.962Z,3.40
2023-03-11T18:42:41.252Z,3.30
2023-03-11T18:45:12.137Z,3.20
2023-03-11T18:47:40.574Z,3.10
2023-03-11T18:50:12.512Z,3.00
2023-03-11T18:52:40.796Z,2.90
2023-03-11T18:55:09.901Z,2.90
2023-03-11T18:57:40.300Z,2.80
2023-03-11T19:00:10.345Z,2.60
2023-03-11T19:02:38.717Z,2.50
2023-03-11T19:05:10.743Z,2.40
2023-03-11T19:07:39.108Z,2.30
2023-03-11T19:10:08.193Z,2.20
2023-03-11T19:12:37.095Z,2.10
2023-03-11T19:15:06.582Z,2.00
2023-03-11T19:17:34.869Z,2.00
2023-03-11T19:20:03.873Z,1.80
2023-03-11T19:22:33.465Z,1.80
2023-03-11T19:25:01.641Z,1.70
2023-03-11T19:27:29.989Z,1.60
2023-03-11T19:29:58.181Z,1.60
2023-03-11T19:32:26.571Z,1.50
2023-03-11T19:34:54.928Z,1.50
2023-03-11T19:37:23.206Z,1.40
2023-03-11T19:39:52.858Z,1.30
2023-03-11T19:42:21.067Z,1.30
2023-03-11T19:44:50.090Z,1.20
2023-03-11T19:47:18.366Z,1.10
2023-03-11T19:49:46.650Z,1.00
2023-03-11T19:52:15.400Z,1.00
2023-03-11T19:54:44.080Z,0.90
2023-03-11T19:57:13.667Z,0.90
2023-03-11T19:59:44.107Z,0.80
2023-03-11T20:02:13.550Z,0.80
2023-03-11T20:04:43.350Z,0.70
2023-03-11T20:07:11.842Z,0.60
2023-03-11T20:09:40.101Z,0.60
2023-03-11T20:12:09.074Z,0.60
2023-03-11T20:14:39.721Z,0.50
2023-03-11T20:17:07.964Z,0.50
2023-03-11T20:19:37.300Z,0.50
2023-03-11T20:22:05.691Z,0.40
2023-03-11T20:24:34.176Z,0.40
2023-03-11T20:27:02.503Z,0.40
2023-03-11T20:29:30.827Z,0.40
2023-03-11T20:32:00.524Z,0.40
2023-03-11T20:34:29.382Z,0.40
2023-03-11T20:36:57.688Z,0.40
2023-03-11T20:39:25.977Z,0.40
2023-03-11T20:41:54.375Z,0.30
2023-03-11T20:44:22.641Z,0.30
2023-03-11T20:46:51.180Z,0.30
2023-03-11T20:49:20.887Z,0.30
2023-03-11T20:51:49.380Z,0.40
2023-03-11T20:54:19.075Z,0.40
2023-03-11T20:56:49.117Z,0.40
2023-03-11T20:59:18.116Z,0.40
2023-03-11T21:01:46.710Z,0.40
2023-03-11T21:04:16.712Z,0.40
2023-03-11T21:06:52.014Z,0.40
2023-03-11T21:09:20.814Z,0.40
2023-03-11T21:11:49.259Z,0.30
2023-03-11T21:14:19.101Z,0.30
2023-03-11T21:16:47.732Z,0.30
2023-03-11T21:19:16.240Z,0.20
2023-03-11T21:21:46.078Z,0.20
2023-03-11T21:24:14.699Z,0.10
2023-03-11T21:26:43.002Z,0.10
2023-03-11T21:29:11.242Z,0.10
2023-03-11T21:31:39.664Z,0.00
2023-03-11T21:34:08.060Z,0.00
2023-03-11T21:36:37.702Z,-0.10
2023-03-11T21:39:07.833Z,-0.10
2023-03-11T21:41:36.110Z,-0.20
2023-03-11T21:44:04.612Z,-0.20
2023-03-11T21:46:34.052Z,-0.30
2023-03-11T21:49:03.058Z,-0.30
2023-03-11T21:51:32.091Z,-0.30
2023-03-11T21:54:00.483Z,-0.40
2023-03-11T21:56:30.153Z,-0.40
2023-03-11T21:58:59.865Z,-0.50
2023-03-11T22:01:30.577Z,-0.60
2023-03-11T22:03:58.978Z,-0.60
2023-03-11T22:06:27.731Z,-0.60
2023-03-11T22:08:56.034Z,-0.70
2023-03-11T22:11:24.434Z,-0.70
2023-03-11T22:13:57.269Z,-0.80
2023-03-11T22:16:26.107Z,-0.80
2023-03-11T22:18:55.021Z,-0.80
2023-03-11T22:21:23.360Z,-0.90
2023-03-11T22:23:51.827Z,-0.90
2023-03-11T22:26:20.041Z,-0.90
2023-03-11T22:28:48.415Z,-1.00
2023-03-11T22:31:18.987Z,-1.00
2023-03-11T22:33:47.553Z,-1.00
2023-03-11T22:36:16.120Z,-1.00
2023-03-11T22:38:44.946Z,-1.10
2023-03-11T22:41:14.312Z,-1.10
2023-03-11T22:43:42.514Z,-1.10
2023-03-11T22:46:11.053Z,-1.20
2023-03-11T22:48:40.846Z,-1.20
2023-03-11T22:51:09.702Z,-1.20
2023-03-11T22:53:37.982Z,-1.30
2023-03-11T22:56:12.224Z,-1.30
2023-03-11T22:58:40.855Z,-1.30
2023-03-11T23:01:10.313Z,-1.40
2023-03-11T23:03:40.523Z,-1.40
2023-03-11T23:06:14.472Z,-1.40
2023-03-11T23:08:43.211Z,-1.40
2023-03-11T23:11:15.654Z,-1.50
2023-03-11T23:13:45.560Z,-1.50
2023-03-11T23:16:17.158Z,-1.50
2023-03-11T23:18:49.159Z,-1.60
2023-03-11T23:21:20.608Z,-1.60
2023-03-11T23:23:49.292Z,-1.60
2023-03-11T23:26:18.334Z,-1.60
2023-03-11T23:28:47.485Z,-1.60
2023-03-11T23:31:16.943Z,-1.70
2023-03-11T23:33:47.757Z,-1.70
2023-03-11T23:36:19.255Z,-1.70
2023-03-11T23:38:49.645Z,-1.70
2023-03-11T23:41:20.749Z,-1.80
2023-03-11T23:43:49.223Z,-1.80
2023-03-11T23:46:17.704Z,-1.80
2023-03-11T23:48:47.440Z,-1.80
2023-03-11T23:51:15.896Z,-1.80
2023-03-11T23:53:44.314Z,-1.90
2023-03-11T23:56:16.861Z,-1.90
2023-03-11T23:58:46.190Z,-1.90
